Time,TemperatureF,DewpointF,PressureIn,WindDirection,WindDirectionDegrees,WindSpeedMPH,WindSpeedGustMPH,Humidity,HourlyPrecipIn,Conditions,Clouds,dailyrainin,SoftwareType,DateUTC
2013-08-13 00:02:00,75.0,68.0,30.09,East,82,0.0,1.0,78,0.00,,,0.83,,2013-08-13 05:02:00,
2013-08-13 00:12:00,75.0,68.0,30.09,East,82,0.0,1.0,78,0.00,,,0.83,,2013-08-13 05:12:00,
2013-08-13 00:21:00,75.0,68.0,30.09,ESE,110,0.0,2.0,78,0.00,,,0.83,,2013-08-13 05:21:00,
2013-08-13 00:32:00,75.0,68.0,30.09,ESE,110,0.0,2.0,78,0.00,,,0.83,,2013-08-13 05:32:00,
2013-08-13 00:52:00,75.0,68.0,30.09,ESE,110,0.0,2.0,78,0.00,,,0.83,,2013-08-13 05:52:00,
2013-08-13 01:21:00,75.0,69.0,30.10,ENE,68,0.0,3.0,81,0.00,,,0.83,,2013-08-13 06:21:00,
2013-08-13 01:32:00,75.0,69.0,30.10,ENE,68,0.0,3.0,81,0.00,,,0.83,,2013-08-13 06:32:00,
2013-08-13 01:52:00,75.0,69.0,30.10,ENE,68,0.0,3.0,81,0.00,,,0.83,,2013-08-13 06:52:00,
2013-08-13 02:01:00,73.0,69.0,30.09,NE,56,2.0,4.0,87,0.00,,,0.83,,2013-08-13 07:01:00,
2013-08-13 02:21:00,73.0,69.0,30.09,NE,56,2.0,4.0,87,0.00,,,0.83,,2013-08-13 07:21:00,
2013-08-13 02:33:00,73.0,69.0,30.09,NE,56,2.0,4.0,87,0.00,,,0.83,,2013-08-13 07:33:00,
2013-08-13 02:52:00,73.0,69.0,30.09,NE,56,2.0,4.0,87,0.00,,,0.83,,2013-08-13 07:52:00,
2013-08-13 04:22:00,73.0,69.0,30.10,East,84,0.0,3.0,87,0.00,,,0.79,,2013-08-13 09:22:00,
2013-08-13 04:53:00,72.0,68.0,30.10,ESE,121,1.0,2.0,88,0.00,,,0.28,,2013-08-13 09:53:00,
2013-08-13 05:03:00,72.0,68.0,30.10,ESE,121,1.0,2.0,88,0.00,,,0.28,,2013-08-13 10:03:00,
2013-08-13 05:23:00,72.0,68.0,30.09,SSE,152,0.0,3.0,88,0.00,,,0.10,,2013-08-13 10:23:00,
2013-08-13 05:53:00,72.0,68.0,30.09,ESE,105,0.0,3.0,88,0.00,,,0.08,,2013-08-13 10:53:00,
2013-08-13 06:22:00,71.0,68.0,30.10,NE,55,2.0,4.0,91,0.00,,,0.00,,2013-08-13 11:22:00,
2013-08-13 06:52:00,71.0,68.0,30.10,NE,55,2.0,2.0,91,0.00,,,0.00,,2013-08-13 11:52:00,
2013-08-13 07:21:00,71.0,68.0,30.10,NE,55,2.0,2.0,91,0.00,,,0.00,,2013-08-13 12:21:00,
2013-08-13 07:52:00,71.0,68.0,30.11,NE,55,2.0,2.0,91,0.00,,,0.00,,2013-08-13 12:52:00,
2013-08-13 08:22:00,71.0,68.0,30.11,NE,39,2.0,6.0,91,0.00,,,0.00,,2013-08-13 13:22:00,
2013-08-13 08:52:00,71.0,68.0,30.13,East,80,2.0,8.0,90,0.00,,,0.00,,2013-08-13 13:52:00,
2013-08-13 09:11:00,72.0,69.0,30.13,East,87,3.0,7.0,90,0.00,,,0.00,,2013-08-13 14:11:00,
2013-08-13 09:22:00,72.0,69.0,30.13,East,87,3.0,7.0,90,0.00,,,0.00,,2013-08-13 14:22:00,
2013-08-13 09:32:00,72.0,69.0,30.13,East,87,3.0,7.0,90,0.00,,,0.00,,2013-08-13 14:32:00,
2013-08-13 09:52:00,74.0,70.0,30.14,East,90,3.0,6.0,86,0.00,,,0.00,,2013-08-13 14:52:00,
2013-08-13 10:01:00,76.0,70.0,30.15,NE,48,6.0,10.0,83,0.00,,,0.00,,2013-08-13 15:01:00,
2013-08-13 10:21:00,76.0,70.0,30.15,NE,48,6.0,10.0,83,0.00,,,0.00,,2013-08-13 15:21:00,
2013-08-13 10:35:00,76.0,70.0,30.15,NE,48,6.0,10.0,83,0.00,,,0.00,,2013-08-13 15:35:00,
2013-08-13 10:54:00,76.0,70.0,30.15,NE,48,6.0,10.0,83,0.00,,,0.00,,2013-08-13 15:54:00,
2013-08-13 11:24:00,79.0,70.0,30.16,SSE,148,4.0,13.0,75,0.00,,,0.00,,2013-08-13 16:24:00,
2013-08-13 11:54:00,80.0,70.0,30.17,SSE,148,4.0,8.0,72,0.00,,,0.00,,2013-08-13 16:54:00,
2013-08-13 12:05:00,80.0,70.0,30.17,SSE,148,4.0,8.0,72,0.00,,,0.00,,2013-08-13 17:05:00,
2013-08-13 12:27:00,80.0,70.0,30.16,SSE,156,3.0,7.0,71,0.00,,,0.00,,2013-08-13 17:27:00,
2013-08-13 12:37:00,80.0,70.0,30.16,SSE,156,3.0,7.0,71,0.00,,,0.00,,2013-08-13 17:37:00,
2013-08-13 12:46:00,-999.0,-99.9,30.16,SSE,166,2.0,9.0,-999,0.00,,,0.00,,2013-08-13 17:46:00,
2013-08-13 12:56:00,81.0,70.0,30.16,SSE,166,2.0,9.0,69,0.00,,,0.00,,2013-08-13 17:56:00,
2013-08-13 13:05:00,81.0,70.0,30.16,SSE,166,2.0,9.0,69,0.00,,,0.00,,2013-08-13 18:05:00,
2013-08-13 13:25:00,82.0,69.0,30.14,SE,139,4.0,11.0,65,0.00,,,0.00,,2013-08-13 18:25:00,
2013-08-13 13:56:00,83.0,70.0,30.14,East,80,7.0,12.0,65,0.00,,,0.00,,2013-08-13 18:56:00,
2013-08-13 14:04:00,83.0,70.0,30.14,East,80,7.0,12.0,65,0.00,,,0.00,,2013-08-13 19:04:00,
2013-08-13 14:14:00,83.0,70.0,30.14,East,80,7.0,12.0,65,0.00,,,0.00,,2013-08-13 19:14:00,
2013-08-13 14:55:00,79.0,69.0,30.15,ENE,64,2.0,9.0,71,0.00,,,0.00,,2013-08-13 19:55:00,
2013-08-13 15:22:00,79.0,69.0,30.14,ESE,120,2.0,9.0,71,0.00,,,0.00,,2013-08-13 20:22:00,
2013-08-13 15:53:00,76.0,69.0,30.16,SSE,166,4.0,8.0,79,0.00,,,0.00,,2013-08-13 20:53:00,
2013-08-13 16:11:00,75.0,69.0,30.15,WNW,297,0.0,4.0,82,0.00,,,0.00,,2013-08-13 21:11:00,
2013-08-13 16:24:00,75.0,69.0,30.15,WNW,297,0.0,4.0,82,0.00,,,0.00,,2013-08-13 21:24:00,
2013-08-13 16:34:00,75.0,69.0,30.15,WNW,297,0.0,4.0,82,0.00,,,0.00,,2013-08-13 21:34:00,
2013-08-13 16:54:00,72.0,69.0,30.14,SW,226,0.0,8.0,91,0.04,,,0.04,,2013-08-13 21:54:00,
2013-08-13 17:13:00,72.0,70.0,30.13,WSW,253,0.0,5.0,92,0.06,,,0.06,,2013-08-13 22:13:00,
2013-08-13 17:22:00,72.0,70.0,30.13,WSW,253,0.0,5.0,92,0.06,,,0.06,,2013-08-13 22:22:00,
2013-08-13 17:57:00,72.0,70.0,30.12,South,191,0.0,1.0,92,0.04,,,0.08,,2013-08-13 22:57:00,
2013-08-13 18:26:00,73.0,70.0,30.11,ENE,77,0.0,2.0,91,0.01,,,0.08,,2013-08-13 23:26:00,
2013-08-13 18:57:00,74.0,71.0,30.11,NNW,335,0.0,1.0,91,0.00,,,0.08,,2013-08-13 23:57:00,
2013-08-13 19:22:00,75.0,71.0,30.12,NNE,23,0.0,1.0,88,0.00,,,0.08,,2013-08-14 00:22:00,
2013-08-13 19:31:00,76.0,70.0,30.13,ENE,76,0.0,1.0,83,0.00,,,0.08,,2013-08-14 00:31:00,
2013-08-13 19:52:00,76.0,70.0,30.13,ENE,76,0.0,1.0,83,0.00,,,0.08,,2013-08-14 00:52:00,
2013-08-13 20:01:00,76.0,70.0,30.13,ENE,76,0.0,1.0,83,0.00,,,0.08,,2013-08-14 01:01:00,
2013-08-13 20:11:00,76.0,70.0,30.13,ENE,76,0.0,1.0,83,0.00,,,0.08,,2013-08-14 01:11:00,
2013-08-13 20:21:00,76.0,70.0,30.13,ENE,76,0.0,1.0,83,0.00,,,0.08,,2013-08-14 01:21:00,
2013-08-13 21:22:00,72.0,69.0,30.15,ENE,72,0.0,0.0,91,0.00,,,0.08,,2013-08-14 02:22:00,
2013-08-13 21:52:00,72.0,69.0,30.16,ENE,71,0.0,1.0,91,0.00,,,0.08,,2013-08-14 02:52:00,
2013-08-13 22:01:00,72.0,69.0,30.16,ENE,71,0.0,1.0,91,0.00,,,0.08,,2013-08-14 03:01:00,
2013-08-13 22:22:00,71.0,67.0,30.17,ENE,63,0.0,2.0,87,0.00,,,0.08,,2013-08-14 03:22:00,
2013-08-13 22:33:00,71.0,67.0,30.17,ENE,63,0.0,2.0,87,0.00,,,0.08,,2013-08-14 03:33:00,
2013-08-13 22:53:00,71.0,67.0,30.17,ENE,63,0.0,2.0,87,0.00,,,0.08,,2013-08-14 03:53:00,
2013-08-13 23:12:00,70.0,66.0,30.18,ENE,59,1.0,2.0,86,0.00,,,0.08,,2013-08-14 04:12:00,
2013-08-13 23:23:00,69.0,65.0,30.19,East,84,0.0,3.0,86,0.00,,,0.08,,2013-08-14 04:23:00,
2013-08-13 23:52:00,68.0,64.0,30.19,SE,128,0.0,1.0,87,0.00,,,0.08,,2013-08-14 04:52:00,